Time,TemperatureF,DewpointF,PressureIn,WindDirection,WindDirectionDegrees,WindSpeedMPH,WindSpeedGustMPH,Humidity,HourlyPrecipIn,Conditions,Clouds,dailyrainin,SoftwareType,DateUTC
2013-05-31 00:02:00,75.0,72.0,29.92,ESE,111,9.0,15.0,91,0.02,,,0.15,,2013-05-31 05:02:00,
2013-05-31 00:12:00,75.0,72.0,29.92,ESE,111,9.0,15.0,91,0.02,,,0.15,,2013-05-31 05:12:00,
2013-05-31 00:22:00,75.0,72.0,29.93,SE,142,8.0,13.0,91,0.03,,,0.16,,2013-05-31 05:22:00,
2013-05-31 00:32:00,74.0,71.0,29.92,SE,139,11.0,15.0,91,0.02,,,0.16,,2013-05-31 05:32:00,
2013-05-31 00:42:00,74.0,71.0,29.92,SE,139,11.0,15.0,91,0.02,,,0.16,,2013-05-31 05:42:00,
2013-05-31 00:52:00,74.0,71.0,29.91,SSE,155,9.0,14.0,91,0.02,,,0.17,,2013-05-31 05:52:00,
2013-05-31 01:02:00,74.0,71.0,29.92,SE,130,8.0,14.0,91,0.03,,,0.18,,2013-05-31 06:02:00,
2013-05-31 01:12:00,74.0,71.0,29.92,SE,130,8.0,14.0,91,0.03,,,0.18,,2013-05-31 06:12:00,
2013-05-31 01:21:00,74.0,71.0,29.92,SSE,147,8.0,14.0,91,0.02,,,0.18,,2013-05-31 06:21:00,
2013-05-31 01:32:00,74.0,71.0,29.91,SE,144,6.0,12.0,91,0.02,,,0.18,,2013-05-31 06:32:00,
2013-05-31 01:41:00,74.0,71.0,29.91,SE,144,6.0,12.0,91,0.02,,,0.18,,2013-05-31 06:41:00,
2013-05-31 01:51:00,73.0,71.0,29.91,SSE,166,9.0,13.0,92,0.02,,,0.19,,2013-05-31 06:51:00,
2013-05-31 02:02:00,73.0,71.0,29.91,SSE,161,6.0,10.0,92,0.02,,,0.19,,2013-05-31 07:02:00,
2013-05-31 02:11:00,73.0,71.0,29.91,SSE,161,6.0,10.0,92,0.02,,,0.19,,2013-05-31 07:11:00,
2013-05-31 02:21:00,73.0,71.0,29.92,SSE,151,5.0,10.0,92,0.01,,,0.19,,2013-05-31 07:21:00,
2013-05-31 02:32:00,73.0,71.0,29.91,SE,146,7.0,11.0,93,0.02,,,0.20,,2013-05-31 07:32:00,
2013-05-31 02:41:00,73.0,71.0,29.91,SE,146,7.0,11.0,93,0.02,,,0.20,,2013-05-31 07:41:00,
2013-05-31 02:52:00,73.0,71.0,29.90,SE,134,6.0,11.0,93,0.01,,,0.20,,2013-05-31 07:52:00,
2013-05-31 03:02:00,73.0,71.0,29.90,SSE,151,5.0,9.0,93,0.01,,,0.20,,2013-05-31 08:02:00,
2013-05-31 03:11:00,73.0,71.0,29.90,SSE,151,5.0,9.0,93,0.01,,,0.20,,2013-05-31 08:11:00,
2013-05-31 03:22:00,73.0,71.0,29.90,SE,145,4.0,8.0,93,0.02,,,0.21,,2013-05-31 08:22:00,
2013-05-31 03:32:00,73.0,71.0,29.89,SSE,166,6.0,9.0,93,0.01,,,0.21,,2013-05-31 08:32:00,
2013-05-31 03:42:00,73.0,71.0,29.89,SSE,166,6.0,9.0,93,0.01,,,0.21,,2013-05-31 08:42:00,
2013-05-31 03:51:00,73.0,71.0,29.91,SSE,166,3.0,7.0,93,0.01,,,0.21,,2013-05-31 08:51:00,
2013-05-31 04:01:00,73.0,71.0,29.91,SSE,152,1.0,4.0,93,0.02,,,0.22,,2013-05-31 09:01:00,
2013-05-31 04:11:00,73.0,71.0,29.91,SSE,152,1.0,4.0,93,0.02,,,0.22,,2013-05-31 09:11:00,
2013-05-31 04:21:00,72.0,70.0,29.92,SSE,152,0.0,2.0,94,0.01,,,0.22,,2013-05-31 09:21:00,
2013-05-31 04:32:00,73.0,71.0,29.93,SSE,151,1.0,3.0,94,0.01,,,0.22,,2013-05-31 09:32:00,
2013-05-31 04:43:00,73.0,71.0,29.93,SSE,151,1.0,3.0,94,0.01,,,0.22,,2013-05-31 09:43:00,
2013-05-31 04:53:00,73.0,71.0,29.93,SSE,147,2.0,4.0,94,0.01,,,0.22,,2013-05-31 09:53:00,
2013-05-31 05:02:00,73.0,71.0,29.94,SSE,149,1.0,3.0,94,0.00,,,0.22,,2013-05-31 10:02:00,
2013-05-31 05:12:00,73.0,71.0,29.94,SSE,149,1.0,3.0,94,0.00,,,0.22,,2013-05-31 10:12:00,
2013-05-31 05:22:00,73.0,71.0,29.95,SSE,147,0.0,2.0,94,0.01,,,0.23,,2013-05-31 10:22:00,
2013-05-31 05:33:00,73.0,71.0,29.94,SE,129,0.0,3.0,94,0.01,,,0.23,,2013-05-31 10:33:00,
2013-05-31 05:42:00,73.0,71.0,29.94,SE,129,0.0,3.0,94,0.01,,,0.23,,2013-05-31 10:42:00,
2013-05-31 05:52:00,73.0,71.0,29.94,SSE,154,2.0,5.0,94,0.01,,,0.23,,2013-05-31 10:52:00,
2013-05-31 06:02:00,73.0,71.0,29.94,ESE,117,3.0,6.0,94,0.01,,,0.23,,2013-05-31 11:02:00,
2013-05-31 06:11:00,73.0,71.0,29.94,ESE,117,3.0,6.0,94,0.01,,,0.23,,2013-05-31 11:11:00,
2013-05-31 06:22:00,73.0,71.0,29.95,SE,126,3.0,6.0,94,0.00,,,0.23,,2013-05-31 11:22:00,
2013-05-31 06:32:00,73.0,71.0,29.95,South,173,1.0,3.0,95,0.01,,,0.24,,2013-05-31 11:32:00,
2013-05-31 06:42:00,73.0,71.0,29.95,South,173,1.0,3.0,95,0.01,,,0.24,,2013-05-31 11:42:00,
2013-05-31 06:52:00,73.0,71.0,29.96,SE,126,1.0,3.0,95,0.01,,,0.24,,2013-05-31 11:52:00,
2013-05-31 07:01:00,73.0,71.0,29.96,NNW,338,1.0,5.0,94,0.01,,,0.24,,2013-05-31 12:01:00,
2013-05-31 07:11:00,73.0,71.0,29.96,NNW,338,1.0,5.0,94,0.01,,,0.24,,2013-05-31 12:11:00,
2013-05-31 07:21:00,73.0,71.0,29.97,North,9,0.0,2.0,94,0.01,,,0.24,,2013-05-31 12:21:00,
2013-05-31 07:31:00,74.0,72.0,29.97,NNE,15,0.0,1.0,93,0.00,,,0.24,,2013-05-31 12:31:00,
2013-05-31 07:41:00,74.0,72.0,29.97,NNE,15,0.0,1.0,93,0.00,,,0.24,,2013-05-31 12:41:00,
2013-05-31 07:52:00,74.0,72.0,29.97,South,186,0.0,2.0,93,0.00,,,0.24,,2013-05-31 12:52:00,
2013-05-31 08:01:00,74.0,72.0,29.97,SSE,152,1.0,5.0,93,0.00,,,0.24,,2013-05-31 13:01:00,
2013-05-31 08:11:00,74.0,72.0,29.97,SSE,152,1.0,5.0,93,0.00,,,0.24,,2013-05-31 13:11:00,
2013-05-31 08:21:00,75.0,73.0,29.96,ESE,119,3.0,7.0,92,0.00,,,0.24,,2013-05-31 13:21:00,
2013-05-31 08:32:00,76.0,73.0,29.97,SSE,161,4.0,8.0,91,0.00,,,0.24,,2013-05-31 13:32:00,
2013-05-31 08:42:00,76.0,73.0,29.97,SSE,161,4.0,8.0,91,0.00,,,0.24,,2013-05-31 13:42:00,
2013-05-31 08:52:00,77.0,73.0,29.96,SSE,154,8.0,12.0,88,0.00,,,0.24,,2013-05-31 13:52:00,
2013-05-31 09:02:00,78.0,74.0,29.95,SSE,147,6.0,14.0,87,0.00,,,0.24,,2013-05-31 14:02:00,
2013-05-31 09:11:00,78.0,74.0,29.95,SSE,147,6.0,14.0,87,0.00,,,0.24,,2013-05-31 14:11:00,
2013-05-31 09:21:00,78.0,73.0,29.95,SSE,158,9.0,12.0,85,0.00,,,0.24,,2013-05-31 14:21:00,
2013-05-31 09:32:00,79.0,74.0,29.95,South,186,5.0,13.0,85,0.00,,,0.24,,2013-05-31 14:32:00,
2013-05-31 09:41:00,79.0,74.0,29.95,South,186,5.0,13.0,85,0.00,,,0.24,,2013-05-31 14:41:00,
2013-05-31 09:52:00,80.0,75.0,29.94,SSE,156,6.0,12.0,84,0.00,,,0.24,,2013-05-31 14:52:00,
2013-05-31 10:01:00,80.0,74.0,29.94,SSE,155,9.0,14.0,81,0.00,,,0.24,,2013-05-31 15:01:00,
2013-05-31 10:11:00,80.0,74.0,29.94,SSE,155,9.0,14.0,81,0.00,,,0.24,,2013-05-31 15:11:00,
2013-05-31 10:21:00,80.0,73.0,29.94,SSE,159,9.0,14.0,79,0.00,,,0.24,,2013-05-31 15:21:00,
2013-05-31 10:33:00,81.0,74.0,29.94,SE,146,9.0,14.0,79,0.00,,,0.24,,2013-05-31 15:33:00,
2013-05-31 10:43:00,81.0,74.0,29.94,SE,146,9.0,14.0,79,0.00,,,0.24,,2013-05-31 15:43:00,
2013-05-31 10:53:00,82.0,74.0,29.93,SSE,157,8.0,12.0,78,0.00,,,0.24,,2013-05-31 15:53:00,
2013-05-31 11:03:00,81.0,74.0,29.93,South,173,8.0,15.0,79,0.00,,,0.24,,2013-05-31 16:03:00,
2013-05-31 11:12:00,81.0,74.0,29.93,South,173,8.0,15.0,79,0.00,,,0.24,,2013-05-31 16:12:00,
2013-05-31 11:22:00,81.0,74.0,29.93,SSE,153,6.0,16.0,79,0.00,,,0.24,,2013-05-31 16:22:00,
2013-05-31 11:33:00,83.0,75.0,29.94,SE,134,7.0,16.0,77,0.00,,,0.24,,2013-05-31 16:33:00,
2013-05-31 11:42:00,83.0,75.0,29.94,SE,134,7.0,16.0,77,0.00,,,0.24,,2013-05-31 16:42:00,
2013-05-31 11:52:00,83.0,75.0,29.93,SE,143,8.0,16.0,76,0.00,,,0.24,,2013-05-31 16:52:00,
2013-05-31 12:02:00,83.0,75.0,29.93,SSE,165,7.0,17.0,78,0.00,,,0.24,,2013-05-31 17:02:00,
2013-05-31 12:12:00,83.0,75.0,29.93,SSE,165,7.0,17.0,78,0.00,,,0.24,,2013-05-31 17:12:00,
2013-05-31 12:22:00,83.0,75.0,29.93,SSE,156,8.0,13.0,77,0.00,,,0.24,,2013-05-31 17:22:00,
2013-05-31 12:32:00,84.0,75.0,29.93,SSE,151,8.0,15.0,74,0.00,,,0.24,,2013-05-31 17:32:00,
2013-05-31 12:42:00,84.0,75.0,29.93,SSE,151,8.0,15.0,74,0.00,,,0.24,,2013-05-31 17:42:00,
2013-05-31 12:52:00,85.0,76.0,29.93,SSE,160,11.0,17.0,74,0.00,,,0.24,,2013-05-31 17:52:00,
2013-05-31 13:02:00,84.0,75.0,29.92,SE,142,7.0,12.0,75,0.00,,,0.24,,2013-05-31 18:02:00,
2013-05-31 13:11:00,84.0,75.0,29.92,SE,142,7.0,12.0,75,0.00,,,0.24,,2013-05-31 18:11:00,
2013-05-31 13:22:00,85.0,76.0,29.91,South,169,5.0,13.0,75,0.00,,,0.24,,2013-05-31 18:22:00,
2013-05-31 13:32:00,86.0,75.0,29.91,SSW,200,7.0,15.0,70,0.00,,,0.24,,2013-05-31 18:32:00,
2013-05-31 13:42:00,86.0,75.0,29.91,SSW,200,7.0,15.0,70,0.00,,,0.24,,2013-05-31 18:42:00,
2013-05-31 13:52:00,86.0,75.0,29.91,South,184,9.0,15.0,70,0.00,,,0.24,,2013-05-31 18:52:00,
2013-05-31 14:02:00,87.0,75.0,29.90,SSE,163,7.0,14.0,67,0.00,,,0.24,,2013-05-31 19:02:00,
2013-05-31 14:11:00,87.0,75.0,29.90,SSE,163,7.0,14.0,67,0.00,,,0.24,,2013-05-31 19:11:00,
2013-05-31 14:22:00,87.0,76.0,29.90,SSW,194,6.0,15.0,71,0.00,,,0.24,,2013-05-31 19:22:00,
2013-05-31 14:32:00,87.0,75.0,29.89,SSW,200,9.0,15.0,67,0.00,,,0.24,,2013-05-31 19:32:00,
2013-05-31 14:42:00,87.0,75.0,29.89,SSW,200,9.0,15.0,67,0.00,,,0.24,,2013-05-31 19:42:00,
2013-05-31 14:52:00,87.0,75.0,29.88,SSW,206,7.0,15.0,68,0.00,,,0.24,,2013-05-31 19:52:00,
2013-05-31 15:01:00,88.0,75.0,29.88,SSW,207,8.0,17.0,66,0.00,,,0.24,,2013-05-31 20:01:00,
2013-05-31 15:11:00,88.0,75.0,29.88,SSW,207,8.0,17.0,66,0.00,,,0.24,,2013-05-31 20:11:00,
2013-05-31 15:22:00,88.0,75.0,29.88,SSW,207,8.0,17.0,66,0.00,,,0.24,,2013-05-31 20:22:00,
2013-05-31 15:52:00,89.0,75.0,29.87,SSE,168,4.0,16.0,64,0.00,,,0.24,,2013-05-31 20:52:00,
2013-05-31 16:01:00,88.0,74.0,29.86,SSE,159,6.0,11.0,64,0.00,,,0.24,,2013-05-31 21:01:00,
2013-05-31 16:11:00,88.0,74.0,29.86,SSE,159,6.0,11.0,64,0.00,,,0.24,,2013-05-31 21:11:00,
2013-05-31 16:22:00,88.0,74.0,29.86,SSW,198,5.0,13.0,64,0.00,,,0.24,,2013-05-31 21:22:00,
2013-05-31 16:32:00,89.0,76.0,29.86,SSE,148,6.0,9.0,65,0.00,,,0.24,,2013-05-31 21:32:00,
2013-05-31 16:42:00,89.0,76.0,29.86,SSE,148,6.0,9.0,65,0.00,,,0.24,,2013-05-31 21:42:00,
2013-05-31 16:53:00,88.0,75.0,29.86,SSE,155,7.0,16.0,65,0.00,,,0.24,,2013-05-31 21:53:00,
2013-05-31 17:02:00,89.0,75.0,29.85,SSE,167,4.0,8.0,63,0.00,,,0.24,,2013-05-31 22:02:00,
2013-05-31 17:12:00,89.0,75.0,29.85,SSE,167,4.0,8.0,63,0.00,,,0.24,,2013-05-31 22:12:00,
2013-05-31 17:22:00,88.0,74.0,29.85,SSE,156,7.0,11.0,64,0.00,,,0.24,,2013-05-31 22:22:00,
2013-05-31 17:33:00,88.0,74.0,29.85,SSE,157,7.0,13.0,63,0.00,,,0.24,,2013-05-31 22:33:00,
2013-05-31 17:42:00,89.0,75.0,29.85,South,178,7.0,13.0,63,0.00,,,0.24,,2013-05-31 22:42:00,
2013-05-31 17:52:00,89.0,75.0,29.85,South,178,7.0,13.0,63,0.00,,,0.24,,2013-05-31 22:52:00,
2013-05-31 18:02:00,87.0,73.0,29.84,SSW,211,6.0,15.0,64,0.00,,,0.24,,2013-05-31 23:02:00,
2013-05-31 18:12:00,87.0,73.0,29.84,SSW,211,6.0,15.0,64,0.00,,,0.24,,2013-05-31 23:12:00,
2013-05-31 18:21:00,88.0,75.0,29.84,SSE,148,4.0,12.0,65,0.00,,,0.24,,2013-05-31 23:21:00,
2013-05-31 18:32:00,88.0,75.0,29.84,SSE,167,9.0,17.0,66,0.00,,,0.24,,2013-05-31 23:32:00,
2013-05-31 18:42:00,88.0,75.0,29.84,SSE,167,9.0,17.0,66,0.00,,,0.24,,2013-05-31 23:42:00,
2013-05-31 18:52:00,87.0,75.0,29.84,SSE,158,6.0,15.0,68,0.00,,,0.24,,2013-05-31 23:52:00,
2013-05-31 19:01:00,87.0,76.0,29.84,South,172,6.0,12.0,69,0.00,,,0.22,,2013-06-01 00:01:00,
2013-05-31 19:11:00,87.0,76.0,29.84,South,172,6.0,12.0,69,0.00,,,0.22,,2013-06-01 00:11:00,
2013-05-31 19:22:00,86.0,74.0,29.84,SSE,165,10.0,15.0,68,0.00,,,0.22,,2013-06-01 00:22:00,
2013-05-31 19:32:00,85.0,75.0,29.85,SSE,165,7.0,12.0,71,0.00,,,0.22,,2013-06-01 00:32:00,
2013-05-31 19:42:00,85.0,75.0,29.85,SSE,165,7.0,12.0,71,0.00,,,0.22,,2013-06-01 00:42:00,
2013-05-31 19:52:00,84.0,74.0,29.85,SSE,147,9.0,15.0,72,0.00,,,0.22,,2013-06-01 00:52:00,
2013-05-31 20:01:00,83.0,74.0,29.85,SE,143,8.0,14.0,75,0.00,,,0.19,,2013-06-01 01:01:00,
2013-05-31 20:11:00,83.0,74.0,29.85,SE,143,8.0,14.0,75,0.00,,,0.19,,2013-06-01 01:11:00,
2013-05-31 20:22:00,83.0,74.0,29.86,SE,146,6.0,15.0,75,0.00,,,0.19,,2013-06-01 01:22:00,
2013-05-31 20:32:00,82.0,74.0,29.85,South,174,7.0,13.0,76,0.00,,,0.19,,2013-06-01 01:32:00,
2013-05-31 20:42:00,82.0,74.0,29.85,SSE,167,7.0,11.0,78,0.00,,,0.19,,2013-06-01 01:42:00,
2013-05-31 20:52:00,82.0,74.0,29.85,SSE,167,7.0,11.0,78,0.00,,,0.19,,2013-06-01 01:52:00,
2013-05-31 21:01:00,81.0,74.0,29.84,South,171,8.0,13.0,80,0.00,,,0.16,,2013-06-01 02:01:00,
2013-05-31 21:11:00,81.0,74.0,29.84,South,171,8.0,13.0,80,0.00,,,0.16,,2013-06-01 02:11:00,
2013-05-31 21:21:00,80.0,74.0,29.84,SE,127,5.0,13.0,81,0.00,,,0.16,,2013-06-01 02:21:00,
2013-05-31 21:32:00,80.0,74.0,29.83,South,177,8.0,14.0,83,0.00,,,0.16,,2013-06-01 02:32:00,
2013-05-31 21:42:00,80.0,74.0,29.84,South,181,10.0,16.0,83,0.00,,,0.16,,2013-06-01 02:42:00,
2013-05-31 21:51:00,80.0,74.0,29.84,South,181,10.0,16.0,83,0.00,,,0.16,,2013-06-01 02:51:00,
2013-05-31 22:01:00,80.0,74.0,29.84,SSE,163,9.0,14.0,83,0.00,,,0.14,,2013-06-01 03:01:00,
2013-05-31 22:11:00,80.0,74.0,29.84,SSE,163,9.0,14.0,83,0.00,,,0.14,,2013-06-01 03:11:00,
2013-05-31 22:21:00,79.0,73.0,29.85,SSE,165,8.0,15.0,83,0.00,,,0.14,,2013-06-01 03:21:00,
2013-05-31 22:33:00,79.0,73.0,29.88,SSE,165,8.0,15.0,83,0.00,,,0.14,,2013-06-01 03:33:00,
2013-05-31 22:43:00,79.0,74.0,29.88,SSE,147,5.0,12.0,85,0.00,,,0.14,,2013-06-01 03:43:00,
2013-05-31 22:53:00,79.0,74.0,29.88,SSE,147,5.0,12.0,85,0.00,,,0.14,,2013-06-01 03:53:00,
2013-05-31 23:03:00,79.0,74.0,29.88,SSE,154,6.0,11.0,85,0.00,,,0.11,,2013-06-01 04:03:00,
2013-05-31 23:12:00,79.0,74.0,29.88,SSE,154,6.0,11.0,85,0.00,,,0.11,,2013-06-01 04:12:00,
2013-05-31 23:23:00,78.0,73.0,29.88,SSE,150,5.0,13.0,85,0.00,,,0.11,,2013-06-01 04:23:00,
2013-05-31 23:33:00,78.0,73.0,29.90,SE,130,7.0,14.0,86,0.00,,,0.11,,2013-06-01 04:33:00,
2013-05-31 23:42:00,78.0,74.0,29.90,SE,144,8.0,13.0,87,0.00,,,0.11,,2013-06-01 04:42:00,
2013-05-31 23:53:00,78.0,74.0,29.90,SE,144,8.0,13.0,87,0.00,,,0.11,,2013-06-01 04:53:00,